sensor_id;sensor_type;location;lat;lon;timestamp;temperature;humidity
5554;DHT22;2800;49.528;8.666;2024-03-07T00:00:44;6.80;99.90
5554;DHT22;2800;49.528;8.666;2024-03-07T00:03:10;6.80;99.90
5554;DHT22;2800;49.528;8.666;2024-03-07T00:05:35;6.80;99.90
5554;DHT22;2800;49.528;8.666;2024-03-07T00:08:01;6.80;99.90
5554;DHT22;2800;49.528;8.666;2024-03-07T00:10:26;6.70;99.90
5554;DHT22;2800;49.528;8.666;2024-03-07T00:12:52;6.60;99.90
5554;DHT22;2800;49.528;8.666;2024-03-07T00:15:18;6.60;99.90
5554;DHT22;2800;49.528;8.666;2024-03-07T00:17:43;6.60;99.90
5554;DHT22;2800;49.528;8.666;2024-03-07T00:20:09;6.50;99.90
5554;DHT22;2800;49.528;8.666;2024-03-07T00:22:40;6.50;99.90
5554;DHT22;2800;49.528;8.666;2024-03-07T00:25:06;6.40;99.90
5554;DHT22;2800;49.528;8.666;2024-03-07T00:27:32;6.30;99.90
5554;DHT22;2800;49.528;8.666;2024-03-07T00:29:59;6.20;99.90
5554;DHT22;2800;49.528;8.666;2024-03-07T00:32:24;6.10;99.90
5554;DHT22;2800;49.528;8.666;2024-03-07T00:34:52;6.10;99.90
5554;DHT22;2800;49.528;8.666;2024-03-07T00:37:18;6.00;99.90
5554;DHT22;2800;49.528;8.666;2024-03-07T00:39:43;5.90;99.90
5554;DHT22;2800;49.528;8.666;2024-03-07T00:42:09;5.80;99.90
5554;DHT22;2800;49.528;8.666;2024-03-07T00:44:35;5.70;99.90
5554;DHT22;2800;49.528;8.666;2024-03-07T00:47:01;5.70;99.90
5554;DHT22;2800;49.528;8.666;2024-03-07T00:49:30;5.60;99.90
5554;DHT22;2800;49.528;8.666;2024-03-07T00:51:57;5.60;99.90
5554;DHT22;2800;49.528;8.666;2024-03-07T00:54:23;5.60;99.90
5554;DHT22;2800;49.528;8.666;2024-03-07T00:56:48;5.50;99.90
5554;DHT22;2800;49.528;8.666;2024-03-07T00:59:17;5.50;99.90
5554;DHT22;2800;49.528;8.666;2024-03-07T01:01:43;5.40;99.90
5554;DHT22;2800;49.528;8.666;2024-03-07T01:04:09;5.40;99.90
5554;DHT22;2800;49.528;8.666;2024-03-07T01:06:35;5.30;99.90
5554;DHT22;2800;49.528;8.666;2024-03-07T01:09:06;5.20;99.90
5554;DHT22;2800;49.528;8.666;2024-03-07T01:11:39;5.10;99.90
5554;DHT22;2800;49.528;8.666;2024-03-07T01:14:04;5.10;99.90
5554;DHT22;2800;49.528;8.666;2024-03-07T01:16:30;5.00;99.90
5554;DHT22;2800;49.528;8.666;2024-03-07T01:18:55;5.10;99.90
5554;DHT22;2800;49.528;8.666;2024-03-07T01:21:21;5.20;99.90
5554;DHT22;2800;49.528;8.666;2024-03-07T01:23:46;5.20;99.90
5554;DHT22;2800;49.528;8.666;2024-03-07T01:26:12;5.30;99.90
5554;DHT22;2800;49.528;8.666;2024-03-07T01:28:37;5.50;99.90
5554;DHT22;2800;49.528;8.666;2024-03-07T01:31:03;5.60;99.90
5554;DHT22;2800;49.528;8.666;2024-03-07T01:33:28;5.60;99.90
5554;DHT22;2800;49.528;8.666;2024-03-07T01:35:54;5.50;99.90
5554;DHT22;2800;49.528;8.666;2024-03-07T01:38:19;5.50;99.90
5554;DHT22;2800;49.528;8.666;2024-03-07T01:40:45;5.50;99.90
5554;DHT22;2800;49.528;8.666;2024-03-07T01:43:11;5.40;99.90
5554;DHT22;2800;49.528;8.666;2024-03-07T01:45:37;5.40;99.90
5554;DHT22;2800;49.528;8.666;2024-03-07T01:48:09;5.40;99.90
5554;DHT22;2800;49.528;8.666;2024-03-07T01:50:35;5.40;99.90
5554;DHT22;2800;49.528;8.666;2024-03-07T01:53:05;5.30;99.90
5554;DHT22;2800;49.528;8.666;2024-03-07T01:55:31;5.20;99.90
5554;DHT22;2800;49.528;8.666;2024-03-07T01:57:59;5.10;99.90
5554;DHT22;2800;49.528;8.666;2024-03-07T02:00:25;5.10;99.90
5554;DHT22;2800;49.528;8.666;2024-03-07T02:02:52;5.00;99.90
5554;DHT22;2800;49.528;8.666;2024-03-07T02:05:18;5.00;99.90
5554;DHT22;2800;49.528;8.666;2024-03-07T02:07:44;4.90;99.90
5554;DHT22;2800;49.528;8.666;2024-03-07T02:10:09;4.90;99.90
5554;DHT22;2800;49.528;8.666;2024-03-07T02:12:35;4.80;99.90
5554;DHT22;2800;49.528;8.666;2024-03-07T02:15:01;4.80;99.90
5554;DHT22;2800;49.528;8.666;2024-03-07T02:17:29;4.80;99.90
5554;DHT22;2800;49.528;8.666;2024-03-07T02:19:54;4.80;99.90
5554;DHT22;2800;49.528;8.666;2024-03-07T02:22:20;4.70;99.90
5554;DHT22;2800;49.528;8.666;2024-03-07T02:24:46;4.70;99.90
5554;DHT22;2800;49.528;8.666;2024-03-07T02:27:12;4.60;99.90
5554;DHT22;2800;49.528;8.666;2024-03-07T02:29:40;4.40;99.90
5554;DHT22;2800;49.528;8.666;2024-03-07T02:32:06;4.20;99.90
5554;DHT22;2800;49.528;8.666;2024-03-07T02:34:31;4.10;99.90
5554;DHT22;2800;49.528;8.666;2024-03-07T02:36:57;4.00;99.90
5554;DHT22;2800;49.528;8.666;2024-03-07T02:39:22;4.00;99.90
5554;DHT22;2800;49.528;8.666;2024-03-07T02:41:50;4.00;99.90
5554;DHT22;2800;49.528;8.666;2024-03-07T02:44:16;4.00;99.90
5554;DHT22;2800;49.528;8.666;2024-03-07T02:46:41;3.90;99.90
5554;DHT22;2800;49.528;8.666;2024-03-07T02:49:07;3.70;99.90
5554;DHT22;2800;49.528;8.666;2024-03-07T02:51:32;3.50;99.90
5554;DHT22;2800;49.528;8.666;2024-03-07T02:53:58;3.50;99.90
5554;DHT22;2800;49.528;8.666;2024-03-07T02:56:24;3.40;99.90
5554;DHT22;2800;49.528;8.666;2024-03-07T02:58:50;3.30;99.90
5554;DHT22;2800;49.528;8.666;2024-03-07T03:01:16;3.20;99.90
5554;DHT22;2800;49.528;8.666;2024-03-07T03:03:42;3.20;99.90
5554;DHT22;2800;49.528;8.666;2024-03-07T03:06:08;3.20;99.90
5554;DHT22;2800;49.528;8.666;2024-03-07T03:08:34;3.10;99.90
5554;DHT22;2800;49.528;8.666;2024-03-07T03:11:00;3.10;99.90
5554;DHT22;2800;49.528;8.666;2024-03-07T03:13:26;3.10;99.90
5554;DHT22;2800;49.528;8.666;2024-03-07T03:15:57;3.00;99.90
5554;DHT22;2800;49.528;8.666;2024-03-07T03:18:23;3.00;99.90
5554;DHT22;2800;49.528;8.666;2024-03-07T03:20:49;3.00;99.90
5554;DHT22;2800;49.528;8.666;2024-03-07T03:23:15;2.90;99.90
5554;DHT22;2800;49.528;8.666;2024-03-07T03:25:41;2.90;99.90
5554;DHT22;2800;49.528;8.666;2024-03-07T03:28:07;2.90;99.90
5554;DHT22;2800;49.528;8.666;2024-03-07T03:30:40;2.90;99.90
5554;DHT22;2800;49.528;8.666;2024-03-07T03:33:07;2.80;99.90
5554;DHT22;2800;49.528;8.666;2024-03-07T03:35:36;2.80;99.90
5554;DHT22;2800;49.528;8.666;2024-03-07T03:38:02;2.80;99.90
5554;DHT22;2800;49.528;8.666;2024-03-07T03:40:28;2.80;99.90
5554;DHT22;2800;49.528;8.666;2024-03-07T03:42:53;2.80;99.90
5554;DHT22;2800;49.528;8.666;2024-03-07T03:45:19;2.80;99.90
5554;DHT22;2800;49.528;8.666;2024-03-07T03:47:45;2.80;99.90
5554;DHT22;2800;49.528;8.666;2024-03-07T03:50:12;3.80;99.90
5554;DHT22;2800;49.528;8.666;2024-03-07T03:52:39;2.80;99.90
5554;DHT22;2800;49.528;8.666;2024-03-07T03:55:05;2.70;99.90
5554;DHT22;2800;49.528;8.666;2024-03-07T03:57:32;2.70;99.90
5554;DHT22;2800;49.528;8.666;2024-03-07T03:59:58;2.70;99.90
5554;DHT22;2800;49.528;8.666;2024-03-07T04:02:24;2.70;99.90
5554;DHT22;2800;49.528;8.666;2024-03-07T04:04:50;2.70;99.90
5554;DHT22;2800;49.528;8.666;2024-03-07T04:07:17;2.70;99.90
5554;DHT22;2800;49.528;8.666;2024-03-07T04:09:43;2.60;99.90
5554;DHT22;2800;49.528;8.666;2024-03-07T04:12:10;2.60;99.90
5554;DHT22;2800;49.528;8.666;2024-03-07T04:14:42;2.70;99.90
5554;DHT22;2800;49.528;8.666;2024-03-07T04:17:08;2.60;99.90
5554;DHT22;2800;49.528;8.666;2024-03-07T04:19:39;2.50;99.90
5554;DHT22;2800;49.528;8.666;2024-03-07T04:22:05;2.50;99.90
5554;DHT22;2800;49.528;8.666;2024-03-07T04:24:31;2.40;99.90
5554;DHT22;2800;49.528;8.666;2024-03-07T04:27:04;2.30;99.90
5554;DHT22;2800;49.528;8.666;2024-03-07T04:29:33;2.20;99.90
5554;DHT22;2800;49.528;8.666;2024-03-07T04:32:03;2.10;99.90
5554;DHT22;2800;49.528;8.666;2024-03-07T04:34:29;2.10;99.90
5554;DHT22;2800;49.528;8.666;2024-03-07T04:36:58;2.00;99.90
5554;DHT22;2800;49.528;8.666;2024-03-07T04:39:27;2.00;99.90
5554;DHT22;2800;49.528;8.666;2024-03-07T04:42:05;1.90;99.90
5554;DHT22;2800;49.528;8.666;2024-03-07T04:44:32;1.90;99.90
5554;DHT22;2800;49.528;8.666;2024-03-07T04:46:59;1.80;99.90
5554;DHT22;2800;49.528;8.666;2024-03-07T04:49:27;1.80;99.90
5554;DHT22;2800;49.528;8.666;2024-03-07T04:51:55;1.80;99.90
5554;DHT22;2800;49.528;8.666;2024-03-07T04:54:21;1.90;99.90
5554;DHT22;2800;49.528;8.666;2024-03-07T04:56:49;1.90;99.90
5554;DHT22;2800;49.528;8.666;2024-03-07T04:59:15;1.90;99.90
5554;DHT22;2800;49.528;8.666;2024-03-07T05:01:42;1.80;99.90
5554;DHT22;2800;49.528;8.666;2024-03-07T05:04:07;1.80;99.90
5554;DHT22;2800;49.528;8.666;2024-03-07T05:06:33;1.90;99.90
5554;DHT22;2800;49.528;8.666;2024-03-07T05:09:00;2.00;99.90
5554;DHT22;2800;49.528;8.666;2024-03-07T05:11:27;2.00;99.90
5554;DHT22;2800;49.528;8.666;2024-03-07T05:13:53;2.00;99.90
5554;DHT22;2800;49.528;8.666;2024-03-07T05:16:18;2.00;99.90
5554;DHT22;2800;49.528;8.666;2024-03-07T05:18:45;2.10;99.90
5554;DHT22;2800;49.528;8.666;2024-03-07T05:21:11;2.10;99.90
5554;DHT22;2800;49.528;8.666;2024-03-07T05:23:55;2.10;99.90
5554;DHT22;2800;49.528;8.666;2024-03-07T05:26:20;2.10;99.90
5554;DHT22;2800;49.528;8.666;2024-03-07T05:28:46;2.10;99.90
5554;DHT22;2800;49.528;8.666;2024-03-07T05:31:11;2.10;99.90
5554;DHT22;2800;49.528;8.666;2024-03-07T05:33:38;2.00;99.90
5554;DHT22;2800;49.528;8.666;2024-03-07T05:36:04;2.10;99.90
5554;DHT22;2800;49.528;8.666;2024-03-07T05:38:40;2.10;99.90
5554;DHT22;2800;49.528;8.666;2024-03-07T05:41:06;2.00;99.90
5554;DHT22;2800;49.528;8.666;2024-03-07T05:43:31;1.80;99.90
5554;DHT22;2800;49.528;8.666;2024-03-07T05:45:57;1.80;99.90
5554;DHT22;2800;49.528;8.666;2024-03-07T05:48:26;1.80;99.90
5554;DHT22;2800;49.528;8.666;2024-03-07T05:50:51;1.70;99.90
5554;DHT22;2800;49.528;8.666;2024-03-07T05:53:18;1.70;99.90
5554;DHT22;2800;49.528;8.666;2024-03-07T05:55:43;1.80;99.90
5554;DHT22;2800;49.528;8.666;2024-03-07T05:58:11;1.70;99.90
5554;DHT22;2800;49.528;8.666;2024-03-07T06:00:36;1.70;99.90
5554;DHT22;2800;49.528;8.666;2024-03-07T06:03:04;1.60;99.90
5554;DHT22;2800;49.528;8.666;2024-03-07T06:05:30;1.50;99.90
5554;DHT22;2800;49.528;8.666;2024-03-07T06:07:56;1.50;99.90
5554;DHT22;2800;49.528;8.666;2024-03-07T06:10:22;1.50;99.90
5554;DHT22;2800;49.528;8.666;2024-03-07T06:12:51;1.40;99.90
5554;DHT22;2800;49.528;8.666;2024-03-07T06:15:17;1.40;99.90
5554;DHT22;2800;49.528;8.666;2024-03-07T06:17:42;1.30;99.90
5554;DHT22;2800;49.528;8.666;2024-03-07T06:20:14;1.30;99.90
5554;DHT22;2800;49.528;8.666;2024-03-07T06:22:50;1.30;99.90
5554;DHT22;2800;49.528;8.666;2024-03-07T06:25:17;1.30;99.90
5554;DHT22;2800;49.528;8.666;2024-03-07T06:27:46;1.40;99.90
5554;DHT22;2800;49.528;8.666;2024-03-07T06:30:15;1.40;99.90
5554;DHT22;2800;49.528;8.666;2024-03-07T06:32:44;1.40;99.90
5554;DHT22;2800;49.528;8.666;2024-03-07T06:35:09;1.50;99.90
5554;DHT22;2800;49.528;8.666;2024-03-07T06:37:35;1.60;99.90
5554;DHT22;2800;49.528;8.666;2024-03-07T06:40:01;1.70;99.90
5554;DHT22;2800;49.528;8.666;2024-03-07T06:42:31;1.80;99.90
5554;DHT22;2800;49.528;8.666;2024-03-07T06:44:58;2.00;99.90
5554;DHT22;2800;49.528;8.666;2024-03-07T06:47:23;2.10;99.90
5554;DHT22;2800;49.528;8.666;2024-03-07T06:49:50;2.20;99.90
5554;DHT22;2800;49.528;8.666;2024-03-07T06:52:18;2.40;99.90
5554;DHT22;2800;49.528;8.666;2024-03-07T06:54:43;2.70;99.90
5554;DHT22;2800;49.528;8.666;2024-03-07T06:57:09;3.10;99.90
5554;DHT22;2800;49.528;8.666;2024-03-07T06:59:34;3.60;99.90
5554;DHT22;2800;49.528;8.666;2024-03-07T07:02:02;3.90;99.90
5554;DHT22;2800;49.528;8.666;2024-03-07T07:04:28;4.30;99.90
5554;DHT22;2800;49.528;8.666;2024-03-07T07:07:07;4.50;99.90
5554;DHT22;2800;49.528;8.666;2024-03-07T07:09:32;4.70;99.90
5554;DHT22;2800;49.528;8.666;2024-03-07T07:11:58;4.90;99.90
5554;DHT22;2800;49.528;8.666;2024-03-07T07:14:23;5.10;99.90
5554;DHT22;2800;49.528;8.666;2024-03-07T07:16:49;5.30;99.90
5554;DHT22;2800;49.528;8.666;2024-03-07T07:19:14;5.40;99.90
5554;DHT22;2800;49.528;8.666;2024-03-07T07:21:40;5.50;99.90
5554;DHT22;2800;49.528;8.666;2024-03-07T07:24:07;5.50;99.90
5554;DHT22;2800;49.528;8.666;2024-03-07T07:26:32;5.70;99.90
5554;DHT22;2800;49.528;8.666;2024-03-07T07:28:59;5.90;99.90
5554;DHT22;2800;49.528;8.666;2024-03-07T07:31:25;6.20;99.90
5554;DHT22;2800;49.528;8.666;2024-03-07T07:33:50;6.20;99.90
5554;DHT22;2800;49.528;8.666;2024-03-07T07:36:16;6.00;99.90
5554;DHT22;2800;49.528;8.666;2024-03-07T07:38:41;5.70;99.90
5554;DHT22;2800;49.528;8.666;2024-03-07T07:41:07;5.50;99.90
5554;DHT22;2800;49.528;8.666;2024-03-07T07:43:32;5.50;99.90
5554;DHT22;2800;49.528;8.666;2024-03-07T07:45:58;5.40;99.90
5554;DHT22;2800;49.528;8.666;2024-03-07T07:48:24;5.20;99.90
5554;DHT22;2800;49.528;8.666;2024-03-07T07:50:50;5.10;99.90
5554;DHT22;2800;49.528;8.666;2024-03-07T07:53:18;4.90;99.90
5554;DHT22;2800;49.528;8.666;2024-03-07T07:55:43;4.90;99.90
5554;DHT22;2800;49.528;8.666;2024-03-07T07:58:09;4.90;99.90
5554;DHT22;2800;49.528;8.666;2024-03-07T08:00:34;4.90;99.90
5554;DHT22;2800;49.528;8.666;2024-03-07T08:03:02;4.90;99.90
5554;DHT22;2800;49.528;8.666;2024-03-07T08:05:30;4.90;99.90
5554;DHT22;2800;49.528;8.666;2024-03-07T08:07:59;4.80;99.90
5554;DHT22;2800;49.528;8.666;2024-03-07T08:10:27;4.70;99.90
5554;DHT22;2800;49.528;8.666;2024-03-07T08:12:56;4.80;99.90
5554;DHT22;2800;49.528;8.666;2024-03-07T08:15:21;4.80;99.90
5554;DHT22;2800;49.528;8.666;2024-03-07T08:17:47;4.90;99.90
5554;DHT22;2800;49.528;8.666;2024-03-07T08:20:15;4.90;99.90
5554;DHT22;2800;49.528;8.666;2024-03-07T08:22:42;5.00;99.90
5554;DHT22;2800;49.528;8.666;2024-03-07T08:25:09;5.10;99.90
5554;DHT22;2800;49.528;8.666;2024-03-07T08:27:36;5.10;99.90
5554;DHT22;2800;49.528;8.666;2024-03-07T08:30:03;5.20;99.90
5554;DHT22;2800;49.528;8.666;2024-03-07T08:32:32;5.30;99.90
5554;DHT22;2800;49.528;8.666;2024-03-07T08:34:59;5.50;99.90
5554;DHT22;2800;49.528;8.666;2024-03-07T08:37:26;5.80;99.90
5554;DHT22;2800;49.528;8.666;2024-03-07T08:39:52;6.00;99.90
5554;DHT22;2800;49.528;8.666;2024-03-07T08:42:18;6.30;99.90
5554;DHT22;2800;49.528;8.666;2024-03-07T08:44:43;7.10;99.90
5554;DHT22;2800;49.528;8.666;2024-03-07T08:47:09;7.60;99.90
5554;DHT22;2800;49.528;8.666;2024-03-07T08:49:35;7.80;99.90
5554;DHT22;2800;49.528;8.666;2024-03-07T08:52:00;7.70;99.90
5554;DHT22;2800;49.528;8.666;2024-03-07T08:54:26;8.30;99.90
5554;DHT22;2800;49.528;8.666;2024-03-07T08:56:52;8.90;99.90
5554;DHT22;2800;49.528;8.666;2024-03-07T08:59:17;9.20;99.90
5554;DHT22;2800;49.528;8.666;2024-03-07T09:01:43;9.40;99.90
5554;DHT22;2800;49.528;8.666;2024-03-07T09:04:09;9.60;99.90
5554;DHT22;2800;49.528;8.666;2024-03-07T09:06:35;9.90;99.90
5554;DHT22;2800;49.528;8.666;2024-03-07T09:09:00;10.00;99.90
5554;DHT22;2800;49.528;8.666;2024-03-07T09:11:26;9.60;99.90
5554;DHT22;2800;49.528;8.666;2024-03-07T09:13:51;9.00;99.90
5554;DHT22;2800;49.528;8.666;2024-03-07T09:16:17;8.80;99.90
5554;DHT22;2800;49.528;8.666;2024-03-07T09:18:42;8.70;99.90
5554;DHT22;2800;49.528;8.666;2024-03-07T09:21:08;8.40;99.90
5554;DHT22;2800;49.528;8.666;2024-03-07T09:23:34;8.20;99.90
5554;DHT22;2800;49.528;8.666;2024-03-07T09:26:00;8.40;99.90
5554;DHT22;2800;49.528;8.666;2024-03-07T09:28:25;8.50;99.90
5554;DHT22;2800;49.528;8.666;2024-03-07T09:30:51;8.30;99.90
5554;DHT22;2800;49.528;8.666;2024-03-07T09:33:16;7.80;99.90
5554;DHT22;2800;49.528;8.666;2024-03-07T09:35:45;7.90;99.90
5554;DHT22;2800;49.528;8.666;2024-03-07T09:38:10;7.60;99.90
5554;DHT22;2800;49.528;8.666;2024-03-07T09:40:37;7.40;99.90
5554;DHT22;2800;49.528;8.666;2024-03-07T09:43:03;7.50;99.90
5554;DHT22;2800;49.528;8.666;2024-03-07T09:45:30;7.50;99.90
5554;DHT22;2800;49.528;8.666;2024-03-07T09:48:00;7.60;99.90
5554;DHT22;2800;49.528;8.666;2024-03-07T09:50:26;7.90;99.90
5554;DHT22;2800;49.528;8.666;2024-03-07T09:52:55;7.70;99.90
5554;DHT22;2800;49.528;8.666;2024-03-07T09:55:21;7.70;99.90
5554;DHT22;2800;49.528;8.666;2024-03-07T09:57:49;7.80;99.90
5554;DHT22;2800;49.528;8.666;2024-03-07T10:00:20;7.60;99.90
5554;DHT22;2800;49.528;8.666;2024-03-07T10:02:56;7.80;99.90
5554;DHT22;2800;49.528;8.666;2024-03-07T10:05:27;7.70;99.90
5554;DHT22;2800;49.528;8.666;2024-03-07T10:07:52;7.80;99.90
5554;DHT22;2800;49.528;8.666;2024-03-07T10:10:19;7.90;99.90
5554;DHT22;2800;49.528;8.666;2024-03-07T10:12:44;8.00;99.90
5554;DHT22;2800;49.528;8.666;2024-03-07T10:15:10;7.60;99.90
5554;DHT22;2800;49.528;8.666;2024-03-07T10:17:38;7.40;99.90
5554;DHT22;2800;49.528;8.666;2024-03-07T10:20:05;7.30;99.90
5554;DHT22;2800;49.528;8.666;2024-03-07T10:22:38;7.60;99.90
5554;DHT22;2800;49.528;8.666;2024-03-07T10:25:03;7.60;99.90
5554;DHT22;2800;49.528;8.666;2024-03-07T10:27:29;8.20;99.90
5554;DHT22;2800;49.528;8.666;2024-03-07T10:29:55;8.60;99.90
5554;DHT22;2800;49.528;8.666;2024-03-07T10:32:22;8.80;99.90
5554;DHT22;2800;49.528;8.666;2024-03-07T10:34:52;9.40;99.90
5554;DHT22;2800;49.528;8.666;2024-03-07T10:37:18;10.60;99.90
5554;DHT22;2800;49.528;8.666;2024-03-07T10:39:49;10.50;99.90
5554;DHT22;2800;49.528;8.666;2024-03-07T10:42:17;10.20;99.90
5554;DHT22;2800;49.528;8.666;2024-03-07T10:44:45;9.40;99.90
5554;DHT22;2800;49.528;8.666;2024-03-07T10:47:16;9.30;99.90
5554;DHT22;2800;49.528;8.666;2024-03-07T10:52:54;9.30;99.90
5554;DHT22;2800;49.528;8.666;2024-03-07T10:55:40;9.20;99.90
5554;DHT22;2800;49.528;8.666;2024-03-07T10:58:14;9.40;99.90
5554;DHT22;2800;49.528;8.666;2024-03-07T11:00:45;9.50;99.90
5554;DHT22;2800;49.528;8.666;2024-03-07T11:03:14;9.60;99.90
5554;DHT22;2800;49.528;8.666;2024-03-07T11:05:40;9.90;99.90
5554;DHT22;2800;49.528;8.666;2024-03-07T11:08:08;10.60;99.90
5554;DHT22;2800;49.528;8.666;2024-03-07T11:10:38;11.60;99.90
5554;DHT22;2800;49.528;8.666;2024-03-07T11:13:09;12.10;99.90
5554;DHT22;2800;49.528;8.666;2024-03-07T11:15:42;12.50;99.90
5554;DHT22;2800;49.528;8.666;2024-03-07T11:18:08;11.60;99.90
5554;DHT22;2800;49.528;8.666;2024-03-07T11:20:39;12.60;99.90
5554;DHT22;2800;49.528;8.666;2024-03-07T11:25:53;13.30;99.90
5554;DHT22;2800;49.528;8.666;2024-03-07T11:28:19;13.40;99.90
5554;DHT22;2800;49.528;8.666;2024-03-07T11:30:45;14.00;99.90
5554;DHT22;2800;49.528;8.666;2024-03-07T11:33:11;13.80;99.90
5554;DHT22;2800;49.528;8.666;2024-03-07T11:35:39;12.70;99.90
5554;DHT22;2800;49.528;8.666;2024-03-07T11:38:06;11.70;99.90
5554;DHT22;2800;49.528;8.666;2024-03-07T11:43:00;11.70;99.90
5554;DHT22;2800;49.528;8.666;2024-03-07T11:45:30;12.10;99.90
5554;DHT22;2800;49.528;8.666;2024-03-07T11:48:00;14.00;99.90
5554;DHT22;2800;49.528;8.666;2024-03-07T11:50:39;12.90;99.90
5554;DHT22;2800;49.528;8.666;2024-03-07T11:53:06;13.50;99.90
5554;DHT22;2800;49.528;8.666;2024-03-07T11:55:36;12.90;99.90
5554;DHT22;2800;49.528;8.666;2024-03-07T11:58:15;12.80;99.90
5554;DHT22;2800;49.528;8.666;2024-03-07T12:00:44;12.70;99.90
5554;DHT22;2800;49.528;8.666;2024-03-07T12:03:13;13.20;99.90
5554;DHT22;2800;49.528;8.666;2024-03-07T12:05:42;13.30;99.90
5554;DHT22;2800;49.528;8.666;2024-03-07T12:08:09;13.10;99.90
5554;DHT22;2800;49.528;8.666;2024-03-07T12:10:36;13.70;99.90
5554;DHT22;2800;49.528;8.666;2024-03-07T12:13:04;13.20;99.60
5554;DHT22;2800;49.528;8.666;2024-03-07T12:15:30;13.10;99.90
5554;DHT22;2800;49.528;8.666;2024-03-07T12:17:57;13.20;99.90
5554;DHT22;2800;49.528;8.666;2024-03-07T12:20:23;12.90;99.90
5554;DHT22;2800;49.528;8.666;2024-03-07T12:23:00;12.40;99.90
5554;DHT22;2800;49.528;8.666;2024-03-07T12:25:29;13.20;99.90
5554;DHT22;2800;49.528;8.666;2024-03-07T12:28:06;13.80;99.90
5554;DHT22;2800;49.528;8.666;2024-03-07T12:30:35;14.40;99.90
5554;DHT22;2800;49.528;8.666;2024-03-07T12:33:03;15.00;99.90
5554;DHT22;2800;49.528;8.666;2024-03-07T12:35:35;14.80;99.10
5554;DHT22;2800;49.528;8.666;2024-03-07T12:38:01;13.50;98.30
5554;DHT22;2800;49.528;8.666;2024-03-07T12:40:29;14.60;99.60
5554;DHT22;2800;49.528;8.666;2024-03-07T12:42:59;15.20;98.70
5554;DHT22;2800;49.528;8.666;2024-03-07T12:45:28;16.90;99.10
5554;DHT22;2800;49.528;8.666;2024-03-07T12:47:53;17.50;98.00
5554;DHT22;2800;49.528;8.666;2024-03-07T12:50:21;17.30;95.90
5554;DHT22;2800;49.528;8.666;2024-03-07T12:52:47;16.90;96.80
5554;DHT22;2800;49.528;8.666;2024-03-07T12:55:16;15.40;95.30
5554;DHT22;2800;49.528;8.666;2024-03-07T12:57:49;13.70;95.60
5554;DHT22;2800;49.528;8.666;2024-03-07T13:00:20;13.00;95.80
5554;DHT22;2800;49.528;8.666;2024-03-07T13:02:49;13.70;96.20
5554;DHT22;2800;49.528;8.666;2024-03-07T13:05:15;14.60;96.20
5554;DHT22;2800;49.528;8.666;2024-03-07T13:07:51;14.90;96.00
5554;DHT22;2800;49.528;8.666;2024-03-07T13:10:17;15.10;95.40
5554;DHT22;2800;49.528;8.666;2024-03-07T13:12:47;15.10;95.90
5554;DHT22;2800;49.528;8.666;2024-03-07T13:15:15;15.40;95.80
5554;DHT22;2800;49.528;8.666;2024-03-07T13:17:41;16.30;96.40
5554;DHT22;2800;49.528;8.666;2024-03-07T13:20:12;14.50;95.00
5554;DHT22;2800;49.528;8.666;2024-03-07T13:22:41;13.30;95.10
5554;DHT22;2800;49.528;8.666;2024-03-07T13:25:15;13.00;95.30
5554;DHT22;2800;49.528;8.666;2024-03-07T13:27:44;12.90;95.50
5554;DHT22;2800;49.528;8.666;2024-03-07T13:30:16;13.60;96.10
5554;DHT22;2800;49.528;8.666;2024-03-07T13:32:47;14.30;96.40
5554;DHT22;2800;49.528;8.666;2024-03-07T13:35:15;13.50;96.40
5554;DHT22;2800;49.528;8.666;2024-03-07T13:37:40;12.40;96.20
5554;DHT22;2800;49.528;8.666;2024-03-07T13:40:06;12.00;95.90
5554;DHT22;2800;49.528;8.666;2024-03-07T13:42:58;11.50;96.40
5554;DHT22;2800;49.528;8.666;2024-03-07T13:45:26;10.90;96.80
5554;DHT22;2800;49.528;8.666;2024-03-07T13:47:53;10.70;97.30
5554;DHT22;2800;49.528;8.666;2024-03-07T13:50:21;10.70;97.00
5554;DHT22;2800;49.528;8.666;2024-03-07T13:52:48;10.80;97.30
5554;DHT22;2800;49.528;8.666;2024-03-07T13:58:21;10.60;97.40
5554;DHT22;2800;49.528;8.666;2024-03-07T14:01:01;10.50;98.00
5554;DHT22;2800;49.528;8.666;2024-03-07T14:06:37;10.50;98.20
5554;DHT22;2800;49.528;8.666;2024-03-07T14:12:47;10.50;99.20
5554;DHT22;2800;49.528;8.666;2024-03-07T14:15:54;10.20;98.90
5554;DHT22;2800;49.528;8.666;2024-03-07T14:21:34;10.20;98.70
5554;DHT22;2800;49.528;8.666;2024-03-07T14:24:51;10.00;98.30
5554;DHT22;2800;49.528;8.666;2024-03-07T14:27:37;10.00;98.30
5554;DHT22;2800;49.528;8.666;2024-03-07T14:32:49;9.80;99.50
5554;DHT22;2800;49.528;8.666;2024-03-07T14:35:23;9.80;99.30
5554;DHT22;2800;49.528;8.666;2024-03-07T14:38:22;9.70;99.50
5554;DHT22;2800;49.528;8.666;2024-03-07T14:40:52;9.70;99.50
5554;DHT22;2800;49.528;8.666;2024-03-07T14:43:19;9.70;99.40
5554;DHT22;2800;49.528;8.666;2024-03-07T14:45:45;9.60;99.60
5554;DHT22;2800;49.528;8.666;2024-03-07T14:48:13;9.70;99.50
5554;DHT22;2800;49.528;8.666;2024-03-07T14:50:42;9.70;99.30
5554;DHT22;2800;49.528;8.666;2024-03-07T14:53:10;9.70;99.70
5554;DHT22;2800;49.528;8.666;2024-03-07T14:55:38;9.60;99.70
5554;DHT22;2800;49.528;8.666;2024-03-07T14:58:04;9.50;99.40
5554;DHT22;2800;49.528;8.666;2024-03-07T15:00:31;9.70;99.90
5554;DHT22;2800;49.528;8.666;2024-03-07T15:02:59;9.60;99.50
5554;DHT22;2800;49.528;8.666;2024-03-07T15:05:25;9.60;99.60
5554;DHT22;2800;49.528;8.666;2024-03-07T15:07:52;9.50;99.40
5554;DHT22;2800;49.528;8.666;2024-03-07T15:10:23;9.50;99.50
5554;DHT22;2800;49.528;8.666;2024-03-07T15:12:52;9.50;99.50
5554;DHT22;2800;49.528;8.666;2024-03-07T15:15:18;9.50;98.90
5554;DHT22;2800;49.528;8.666;2024-03-07T15:17:44;9.60;99.20
5554;DHT22;2800;49.528;8.666;2024-03-07T15:20:11;9.70;99.50
5554;DHT22;2800;49.528;8.666;2024-03-07T15:22:54;9.80;99.30
5554;DHT22;2800;49.528;8.666;2024-03-07T15:25:21;9.70;99.10
5554;DHT22;2800;49.528;8.666;2024-03-07T15:27:48;9.60;99.90
5554;DHT22;2800;49.528;8.666;2024-03-07T15:30:19;9.70;99.90
5554;DHT22;2800;49.528;8.666;2024-03-07T15:32:45;9.60;99.30
5554;DHT22;2800;49.528;8.666;2024-03-07T15:35:12;9.60;99.00
5554;DHT22;2800;49.528;8.666;2024-03-07T15:37:41;9.60;99.00
5554;DHT22;2800;49.528;8.666;2024-03-07T15:40:08;9.60;98.80
5554;DHT22;2800;49.528;8.666;2024-03-07T15:42:47;9.60;99.30
5554;DHT22;2800;49.528;8.666;2024-03-07T15:45:21;9.60;98.80
5554;DHT22;2800;49.528;8.666;2024-03-07T15:48:05;9.50;98.70
5554;DHT22;2800;49.528;8.666;2024-03-07T15:50:35;9.50;99.00
5554;DHT22;2800;49.528;8.666;2024-03-07T15:53:02;9.50;99.30
5554;DHT22;2800;49.528;8.666;2024-03-07T15:55:30;9.50;99.30
5554;DHT22;2800;49.528;8.666;2024-03-07T15:57:59;9.60;99.10
5554;DHT22;2800;49.528;8.666;2024-03-07T16:00:30;9.60;99.30
5554;DHT22;2800;49.528;8.666;2024-03-07T16:03:03;9.50;99.90
5554;DHT22;2800;49.528;8.666;2024-03-07T16:05:40;9.20;99.90
5554;DHT22;2800;49.528;8.666;2024-03-07T16:08:08;9.10;99.90
5554;DHT22;2800;49.528;8.666;2024-03-07T16:10:36;9.00;99.90
5554;DHT22;2800;49.528;8.666;2024-03-07T16:13:04;9.00;99.90
5554;DHT22;2800;49.528;8.666;2024-03-07T16:15:35;8.90;99.90
5554;DHT22;2800;49.528;8.666;2024-03-07T16:18:01;8.90;99.90
5554;DHT22;2800;49.528;8.666;2024-03-07T16:20:30;8.80;99.90
5554;DHT22;2800;49.528;8.666;2024-03-07T16:22:56;8.80;99.90
5554;DHT22;2800;49.528;8.666;2024-03-07T16:25:23;8.70;99.90
5554;DHT22;2800;49.528;8.666;2024-03-07T16:27:50;8.70;99.90
5554;DHT22;2800;49.528;8.666;2024-03-07T16:30:18;8.70;99.90
5554;DHT22;2800;49.528;8.666;2024-03-07T16:32:45;8.70;99.90
5554;DHT22;2800;49.528;8.666;2024-03-07T16:35:16;8.60;99.90
5554;DHT22;2800;49.528;8.666;2024-03-07T16:37:46;8.70;99.90
5554;DHT22;2800;49.528;8.666;2024-03-07T16:40:17;8.60;99.90
5554;DHT22;2800;49.528;8.666;2024-03-07T16:42:46;8.50;99.90